createdAt,value
2018-06-01T00:01:25.627Z,26.03
2018-06-01T00:03:53.085Z,24.45
2018-06-01T00:06:20.535Z,26.37
2018-06-01T00:08:47.963Z,27.03
2018-06-01T00:11:15.454Z,25.10
2018-06-01T00:13:42.889Z,26.42
2018-06-01T00:16:10.312Z,25.70
2018-06-01T00:18:38.517Z,25.20
2018-06-01T00:21:05.981Z,25.12
2018-06-01T00:23:33.458Z,25.83
2018-06-01T00:26:00.908Z,28.55
2018-06-01T00:28:28.363Z,27.13
2018-06-01T00:30:55.817Z,25.57
2018-06-01T00:33:23.293Z,26.13
2018-06-01T00:35:50.748Z,26.27
2018-06-01T00:38:18.179Z,28.53
2018-06-01T00:40:45.658Z,26.30
2018-06-01T00:43:13.126Z,27.57
2018-06-01T00:45:40.584Z,27.90
2018-06-01T00:48:08.040Z,29.83
2018-06-01T00:50:35.597Z,28.47
2018-06-01T00:53:03.061Z,28.33
2018-06-01T00:55:30.505Z,29.27
2018-06-01T00:57:57.953Z,28.27
2018-06-01T01:00:25.386Z,29.00
2018-06-01T01:02:52.882Z,29.20
2018-06-01T01:05:20.320Z,28.57
2018-06-01T01:07:47.793Z,29.52
2018-06-01T01:10:15.259Z,28.37
2018-06-01T01:12:42.718Z,26.63
2018-06-01T01:15:10.259Z,27.27
2018-06-01T01:17:37.735Z,25.93
2018-06-01T01:20:05.174Z,28.00
2018-06-01T01:22:32.631Z,29.03
2018-06-01T01:25:00.135Z,26.63
2018-06-01T01:27:27.582Z,30.47
2018-06-01T01:29:55.087Z,32.07
2018-06-01T01:32:23.314Z,35.80
2018-06-01T01:34:51.532Z,34.37
2018-06-01T01:37:30.905Z,34.20
2018-06-01T01:39:59.206Z,29.37
2018-06-01T01:42:26.643Z,25.37
2018-06-01T01:44:54.090Z,23.43
2018-06-01T01:47:21.542Z,25.33
2018-06-01T01:49:53.775Z,27.67
2018-06-01T01:52:21.992Z,39.47
2018-06-01T01:54:49.436Z,34.37
2018-06-01T01:57:16.928Z,35.70
2018-06-01T01:59:44.382Z,31.77
2018-06-01T02:02:11.839Z,34.53
2018-06-01T02:04:39.300Z,29.67
2018-06-01T02:07:06.743Z,32.17
2018-06-01T02:09:34.181Z,38.00
2018-06-01T02:12:01.631Z,37.43
2018-06-01T02:14:29.132Z,45.63
2018-06-01T02:16:56.584Z,40.87
2018-06-01T02:19:24.033Z,38.27
2018-06-01T02:21:51.459Z,44.13
2018-06-01T02:24:19.034Z,40.10
2018-06-01T02:26:46.446Z,42.03
2018-06-01T02:29:14.656Z,53.47
2018-06-01T02:31:42.129Z,46.27
2018-06-01T02:34:10.402Z,52.10
2018-06-01T02:36:37.852Z,54.55
2018-06-01T02:39:06.069Z,46.17
2018-06-01T02:41:33.613Z,49.27
2018-06-01T02:44:01.060Z,50.67
2018-06-01T02:46:28.487Z,39.73
2018-06-01T02:48:55.987Z,40.57
2018-06-01T02:51:23.432Z,47.43
2018-06-01T02:53:50.887Z,51.53
2018-06-01T02:56:18.359Z,51.27
2018-06-01T02:58:45.803Z,53.47
2018-06-01T03:01:13.368Z,53.07
2018-06-01T03:03:40.810Z,57.67
2018-06-01T03:06:08.243Z,54.10
2018-06-01T03:08:35.715Z,43.30
2018-06-01T03:11:03.253Z,46.23
2018-06-01T03:13:30.731Z,48.60
2018-06-01T03:15:58.171Z,53.07
2018-06-01T03:18:25.631Z,61.37
2018-06-01T03:20:53.066Z,56.37
2018-06-01T03:23:20.501Z,62.65
2018-06-01T03:25:48.715Z,58.20
2018-06-01T03:28:16.143Z,70.10
2018-06-01T03:30:44.554Z,55.80
2018-06-01T03:33:12.029Z,51.50
2018-06-01T03:35:39.469Z,50.13
2018-06-01T03:38:06.913Z,48.23
2018-06-01T03:40:34.346Z,54.07
2018-06-01T03:43:02.559Z,50.07
2018-06-01T03:45:29.999Z,45.77
2018-06-01T03:47:57.435Z,48.73
2018-06-01T03:50:25.641Z,58.50
2018-06-01T03:52:53.079Z,51.70
2018-06-01T03:55:20.571Z,60.37
2018-06-01T03:57:48.031Z,78.83
2018-06-01T04:00:15.492Z,59.43
2018-06-01T04:02:42.959Z,65.87
2018-06-01T04:05:10.411Z,82.53
2018-06-01T04:07:37.963Z,67.57
2018-06-01T04:10:05.419Z,64.80
2018-06-01T04:12:32.968Z,71.43
2018-06-01T04:15:00.402Z,79.10
2018-06-01T04:17:27.839Z,82.03
2018-06-01T04:19:56.067Z,72.77
2018-06-01T04:22:23.542Z,88.83
2018-06-01T04:24:50.979Z,95.63
2018-06-01T04:27:18.531Z,93.43
2018-06-01T04:29:46.003Z,118.80
2018-06-01T04:32:13.575Z,89.97
2018-06-01T04:34:41.032Z,92.07
2018-06-01T04:37:08.475Z,96.97
2018-06-01T04:39:35.931Z,97.00
2018-06-01T04:42:03.383Z,95.03
2018-06-01T04:44:30.940Z,85.30
2018-06-01T04:46:58.412Z,80.50
2018-06-01T04:49:25.852Z,86.93
2018-06-01T04:51:53.286Z,89.53
2018-06-01T04:54:20.726Z,109.07
2018-06-01T04:56:48.951Z,111.77
2018-06-01T04:59:16.411Z,94.13
2018-06-01T05:01:43.877Z,116.07
2018-06-01T05:04:11.302Z,95.53
2018-06-01T05:06:38.786Z,95.40
2018-06-01T05:09:06.228Z,102.43
2018-06-01T05:11:33.695Z,99.67
2018-06-01T05:14:01.151Z,96.53
2018-06-01T05:16:28.625Z,94.60
2018-06-01T05:18:56.063Z,94.90
2018-06-01T05:21:23.635Z,87.80
2018-06-01T05:23:51.082Z,97.63
2018-06-01T05:26:18.542Z,99.70
2018-06-01T05:28:45.986Z,95.30
2018-06-01T05:31:13.472Z,91.30
2018-06-01T05:33:40.914Z,88.10
2018-06-01T05:36:08.363Z,91.67
2018-06-01T05:38:35.831Z,87.70
2018-06-01T05:41:03.269Z,88.90
2018-06-01T05:43:30.839Z,68.10
2018-06-01T05:45:58.371Z,74.53
2018-06-01T05:48:25.861Z,76.20
2018-06-01T05:50:53.294Z,73.10
2018-06-01T05:53:20.783Z,68.17
2018-06-01T05:55:48.218Z,70.90
2018-06-01T05:58:15.673Z,72.28
2018-06-01T06:00:43.127Z,68.90
2018-06-01T06:03:10.563Z,70.30
2018-06-01T06:05:38.784Z,59.90
2018-06-01T06:08:06.227Z,65.68
2018-06-01T06:10:33.695Z,59.97
2018-06-01T06:13:01.138Z,66.90
2018-06-01T06:15:28.615Z,65.85
2018-06-01T06:17:56.059Z,66.30
2018-06-01T06:20:23.496Z,66.55
2018-06-01T06:22:50.952Z,63.67
2018-06-01T06:25:18.387Z,63.45
2018-06-01T06:27:46.591Z,64.40
2018-06-01T06:30:14.034Z,69.15
2018-06-01T06:32:42.236Z,65.22
2018-06-01T06:35:09.744Z,62.85
2018-06-01T06:37:37.239Z,56.78
2018-06-01T06:40:04.781Z,63.25
2018-06-01T06:42:32.975Z,60.20
2018-06-01T06:45:00.463Z,62.53
2018-06-01T06:47:27.904Z,61.20
2018-06-01T06:49:55.345Z,57.67
2018-06-01T06:52:22.795Z,62.28
2018-06-01T06:54:50.245Z,62.62
2018-06-01T06:57:18.437Z,59.05
2018-06-01T06:59:45.887Z,61.83
2018-06-01T07:02:13.338Z,63.55
2018-06-01T07:04:40.772Z,60.03
2018-06-01T07:07:09.003Z,58.03
2018-06-01T07:09:36.460Z,59.05
2018-06-01T07:12:03.933Z,61.30
2018-06-01T07:14:31.365Z,59.17
2018-06-01T07:16:58.803Z,64.22
2018-06-01T07:19:26.295Z,56.40
2018-06-01T07:21:53.741Z,61.25
2018-06-01T07:24:21.211Z,60.20
2018-06-01T07:26:48.758Z,62.25
2018-06-01T07:29:16.235Z,60.53
2018-06-01T07:31:43.695Z,58.75
2018-06-01T07:34:11.124Z,56.37
2018-06-01T07:36:38.602Z,58.55
2018-06-01T07:39:06.901Z,56.95
2018-06-01T07:41:34.331Z,61.22
2018-06-01T07:44:01.777Z,55.75
2018-06-01T07:46:29.223Z,54.50
2018-06-01T07:48:56.663Z,52.97
2018-06-01T07:51:24.103Z,54.53
2018-06-01T07:53:51.583Z,51.20
2018-06-01T07:56:19.043Z,48.60
2018-06-01T07:58:46.512Z,45.35
2018-06-01T08:01:14.005Z,45.08
2018-06-01T08:03:41.444Z,40.53
2018-06-01T08:06:08.891Z,39.88
2018-06-01T08:08:36.361Z,37.30
2018-06-01T08:11:03.795Z,35.67
2018-06-01T08:13:31.263Z,35.28
2018-06-01T08:15:58.750Z,33.03
2018-06-01T08:18:26.212Z,32.85
2018-06-01T08:20:53.663Z,33.45
2018-06-01T08:23:21.113Z,31.27
2018-06-01T08:25:48.669Z,30.85
2018-06-01T08:28:16.091Z,30.42
2018-06-01T08:30:44.318Z,29.48
2018-06-01T08:33:11.776Z,27.02
2018-06-01T08:35:39.211Z,27.73
2018-06-01T08:38:06.650Z,27.98
2018-06-01T08:40:34.087Z,28.35
2018-06-01T08:43:02.287Z,28.87
2018-06-01T08:45:29.729Z,27.62
2018-06-01T08:47:57.933Z,25.88
2018-06-01T08:50:25.371Z,27.23
2018-06-01T08:52:52.860Z,24.12
2018-06-01T08:55:20.413Z,23.23
2018-06-01T08:57:47.895Z,23.42
2018-06-01T09:00:15.449Z,24.27
2018-06-01T09:02:42.990Z,25.73
2018-06-01T09:05:10.514Z,23.40
2018-06-01T09:07:38.777Z,25.88
2018-06-01T09:10:07.094Z,24.37
2018-06-01T09:12:34.459Z,24.85
2018-06-01T09:15:01.891Z,26.50
2018-06-01T09:17:29.395Z,23.33
2018-06-01T09:19:56.838Z,23.77
2018-06-01T09:22:24.271Z,26.00
2018-06-01T09:24:51.822Z,25.35
2018-06-01T09:27:19.240Z,24.00
2018-06-01T09:29:46.783Z,24.52
2018-06-01T09:32:14.208Z,25.05
2018-06-01T09:34:41.698Z,25.45
2018-06-01T09:37:09.160Z,21.58
2018-06-01T09:39:36.624Z,21.52
2018-06-01T09:42:04.061Z,20.30
2018-06-01T09:44:31.709Z,20.33
2018-06-01T09:46:59.142Z,19.70
2018-06-01T09:49:26.626Z,18.33
2018-06-01T09:51:54.073Z,16.67
2018-06-01T09:54:21.510Z,15.60
2018-06-01T09:56:48.955Z,17.70
2018-06-01T09:59:17.155Z,14.82
2018-06-01T10:01:44.640Z,15.20
2018-06-01T10:04:12.082Z,14.60
2018-06-01T10:06:39.533Z,15.70
2018-06-01T10:09:07.015Z,16.83
2018-06-01T10:11:34.445Z,16.60
2018-06-01T10:14:01.929Z,18.02
2018-06-01T10:16:29.369Z,17.20
2018-06-01T10:18:56.843Z,13.18
2018-06-01T10:21:24.290Z,15.27
2018-06-01T10:23:51.727Z,12.27
2018-06-01T10:26:19.257Z,12.70
2018-06-01T10:28:46.694Z,13.20
2018-06-01T10:31:14.234Z,13.10
2018-06-01T10:33:41.684Z,13.18
2018-06-01T10:36:09.143Z,11.52
2018-06-01T10:38:36.579Z,15.38
2018-06-01T10:41:04.036Z,11.18
2018-06-01T10:43:31.487Z,13.57
2018-06-01T10:45:58.947Z,12.37
2018-06-01T10:48:26.399Z,14.50
2018-06-01T10:50:53.887Z,12.50
2018-06-01T10:53:21.383Z,9.95
2018-06-01T10:55:48.929Z,11.40
2018-06-01T10:58:16.461Z,12.23
2018-06-01T11:00:43.903Z,12.32
2018-06-01T11:03:11.336Z,15.50
2018-06-01T11:05:39.542Z,15.52
2018-06-01T11:08:06.987Z,14.85
2018-06-01T11:10:34.502Z,14.65
2018-06-01T11:13:01.950Z,14.38
2018-06-01T11:15:29.402Z,15.23
2018-06-01T11:17:56.943Z,15.45
2018-06-01T11:20:24.384Z,16.98
2018-06-01T11:22:51.850Z,17.48
2018-06-01T11:25:19.287Z,17.50
2018-06-01T11:27:46.720Z,19.27
2018-06-01T11:30:14.938Z,24.87
2018-06-01T11:32:42.359Z,25.92
2018-06-01T11:35:10.671Z,25.92
2018-06-01T11:37:38.095Z,26.42
2018-06-01T11:40:06.298Z,24.83
2018-06-01T11:42:33.756Z,24.85
2018-06-01T11:45:01.231Z,27.65
2018-06-01T11:47:28.699Z,27.70
2018-06-01T11:49:56.143Z,25.33
2018-06-01T11:52:23.698Z,28.25
2018-06-01T11:54:51.177Z,29.17
2018-06-01T11:57:18.625Z,29.70
2018-06-01T11:59:46.070Z,30.17
2018-06-01T12:02:13.513Z,32.78
2018-06-01T12:04:41.001Z,31.83
2018-06-01T12:07:08.557Z,32.35
2018-06-01T12:09:36.018Z,31.17
2018-06-01T12:12:03.467Z,33.00
2018-06-01T12:14:30.922Z,32.55
2018-06-01T12:16:58.479Z,37.50
2018-06-01T12:19:25.945Z,43.60
2018-06-01T12:21:53.407Z,49.28
2018-06-01T12:24:20.852Z,48.47
2018-06-01T12:26:48.315Z,50.65
2018-06-01T12:29:15.943Z,59.72
2018-06-01T12:31:43.332Z,50.22
2018-06-01T12:34:10.771Z,59.88
2018-06-01T12:36:38.515Z,48.03
2018-06-01T12:39:06.097Z,38.58
2018-06-01T12:41:33.552Z,36.38
2018-06-01T12:44:01.000Z,46.25
2018-06-01T12:46:29.215Z,39.70
2018-06-01T12:48:56.679Z,36.80
2018-06-01T12:51:24.131Z,42.80
2018-06-01T12:53:51.579Z,49.20
2018-06-01T12:56:19.019Z,52.17
2018-06-01T12:58:46.447Z,51.67
2018-06-01T13:01:14.694Z,42.62
2018-06-01T13:03:42.130Z,42.17
2018-06-01T13:06:09.571Z,39.45
2018-06-01T13:08:37.020Z,47.92
2018-06-01T13:11:05.231Z,48.90
2018-06-01T13:13:32.683Z,51.13
2018-06-01T13:16:00.133Z,48.95
2018-06-01T13:18:27.595Z,40.30
2018-06-01T13:20:55.079Z,42.15
2018-06-01T13:23:22.562Z,38.00
2018-06-01T13:25:50.086Z,37.70
2018-06-01T13:28:17.567Z,35.72
2018-06-01T13:30:45.093Z,31.55
2018-06-01T13:33:12.527Z,33.65
2018-06-01T13:35:40.015Z,34.33
2018-06-01T13:38:07.575Z,36.08
2018-06-01T13:40:35.031Z,34.67
2018-06-01T13:43:02.475Z,32.80
2018-06-01T13:45:29.943Z,32.55
2018-06-01T13:47:57.395Z,36.50
2018-06-01T13:50:24.876Z,36.13
2018-06-01T13:52:52.327Z,28.65
2018-06-01T13:55:19.941Z,29.92
2018-06-01T13:57:47.460Z,27.90
2018-06-01T14:00:14.914Z,30.58
2018-06-01T14:02:42.695Z,33.08
2018-06-01T14:05:10.329Z,31.48
2018-06-01T14:07:37.837Z,34.05
2018-06-01T14:10:06.049Z,36.38
2018-06-01T14:12:33.731Z,42.42
2018-06-01T14:15:01.297Z,37.13
2018-06-01T14:17:28.736Z,45.03
2018-06-01T14:19:56.277Z,38.83
2018-06-01T14:22:23.756Z,38.22
2018-06-01T14:24:51.196Z,40.63
2018-06-01T14:27:18.676Z,38.08
2018-06-01T14:29:46.263Z,34.05
2018-06-01T14:32:13.683Z,30.27
2018-06-01T14:34:41.125Z,33.20
2018-06-01T14:37:08.564Z,29.02
2018-06-01T14:39:36.051Z,28.38
2018-06-01T14:42:03.516Z,24.90
2018-06-01T14:44:30.943Z,24.95
2018-06-01T14:46:58.484Z,24.85
2018-06-01T14:49:25.881Z,23.30
2018-06-01T14:51:53.373Z,24.23
2018-06-01T14:54:20.864Z,26.03
2018-06-01T14:56:49.197Z,24.35
2018-06-01T14:59:16.672Z,24.83
2018-06-01T15:01:44.169Z,22.70
2018-06-01T15:04:11.579Z,24.50
2018-06-01T15:06:39.111Z,24.80
2018-06-01T15:09:06.588Z,25.90
2018-06-01T15:11:34.019Z,26.58
2018-06-01T15:14:01.574Z,26.95
2018-06-01T15:16:28.936Z,25.42
2018-06-01T15:18:56.378Z,26.37
2018-06-01T15:21:23.836Z,27.52
2018-06-01T15:23:51.295Z,29.58
2018-06-01T15:26:18.715Z,29.17
2018-06-01T15:28:47.037Z,30.35
2018-06-01T15:31:14.485Z,28.62
2018-06-01T15:33:41.935Z,27.98
2018-06-01T15:36:09.383Z,26.25
2018-06-01T15:38:36.977Z,29.97
2018-06-01T15:41:04.514Z,29.15
2018-06-01T15:43:31.860Z,28.75
2018-06-01T15:45:59.343Z,26.55
2018-06-01T15:48:26.803Z,26.42
2018-06-01T15:50:54.247Z,26.17
2018-06-01T15:53:21.701Z,27.45
2018-06-01T15:55:49.163Z,25.58
2018-06-01T15:58:16.650Z,27.02
2018-06-01T16:00:44.078Z,26.45
2018-06-01T16:03:11.534Z,25.85
2018-06-01T16:05:38.966Z,27.67
2018-06-01T16:08:07.171Z,26.98
2018-06-01T16:10:34.624Z,27.25
2018-06-01T16:13:02.108Z,25.73
2018-06-01T16:15:29.539Z,30.40
2018-06-01T16:17:57.011Z,26.75
2018-06-01T16:20:24.491Z,28.30
2018-06-01T16:22:51.947Z,28.23
2018-06-01T16:25:19.391Z,26.42
2018-06-01T16:27:46.834Z,26.30
2018-06-01T16:30:14.284Z,26.62
2018-06-01T16:32:41.727Z,26.25
2018-06-01T16:35:09.223Z,25.95
2018-06-01T16:37:36.680Z,27.02
2018-06-01T16:40:04.121Z,26.27
2018-06-01T16:42:31.574Z,25.73
2018-06-01T16:44:59.028Z,27.73
2018-06-01T16:47:26.507Z,28.70
2018-06-01T16:49:53.963Z,27.17
2018-06-01T16:52:21.409Z,25.63
2018-06-01T16:54:48.844Z,28.33
2018-06-01T16:57:16.335Z,26.57
2018-06-01T16:59:43.771Z,29.95
2018-06-01T17:02:11.215Z,28.87
2018-06-01T17:04:38.665Z,29.63
2018-06-01T17:07:06.904Z,26.27
2018-06-01T17:09:34.332Z,22.13
2018-06-01T17:12:01.776Z,22.17
2018-06-01T17:14:29.220Z,21.97
2018-06-01T17:16:56.657Z,22.63
2018-06-01T17:19:24.859Z,22.30
2018-06-01T17:21:52.347Z,23.80
2018-06-01T17:24:19.802Z,25.17
2018-06-01T17:26:47.267Z,25.87
2018-06-01T17:29:14.718Z,25.80
2018-06-01T17:31:42.176Z,25.93
2018-06-01T17:34:09.712Z,24.73
2018-06-01T17:36:37.160Z,24.03
2018-06-01T17:39:05.383Z,27.80
2018-06-01T17:41:32.844Z,31.10
2018-06-01T17:44:00.258Z,26.40
2018-06-01T17:46:27.727Z,29.87
2018-06-01T17:48:55.171Z,26.83
2018-06-01T17:51:22.639Z,27.13
2018-06-01T17:53:50.095Z,26.90
2018-06-01T17:56:17.555Z,27.87
2018-06-01T17:58:45.011Z,27.57
2018-06-01T18:01:12.476Z,28.33
2018-06-01T18:03:39.909Z,29.47
2018-06-01T18:06:07.335Z,26.03
2018-06-01T18:08:35.540Z,26.40
2018-06-01T18:11:02.977Z,25.20
2018-06-01T18:13:31.299Z,27.13
2018-06-01T18:15:58.753Z,23.27
2018-06-01T18:18:26.209Z,25.77
2018-06-01T18:20:53.659Z,26.97
2018-06-01T18:23:21.151Z,28.10
2018-06-01T18:25:48.688Z,28.03
2018-06-01T18:28:16.114Z,29.70
2018-06-01T18:30:43.552Z,33.55
2018-06-01T18:33:11.767Z,31.60
2018-06-01T18:35:39.205Z,32.93
2018-06-01T18:38:06.699Z,33.27
2018-06-01T18:40:34.239Z,31.23
2018-06-01T18:43:01.709Z,31.43
2018-06-01T18:45:29.163Z,33.07
2018-06-01T18:47:56.614Z,33.70
2018-06-01T18:50:24.080Z,31.77
2018-06-01T18:52:51.535Z,32.77
2018-06-01T18:55:19.003Z,29.47
2018-06-01T18:57:46.443Z,31.53
2018-06-01T19:00:13.875Z,29.47
2018-06-01T19:02:41.319Z,30.63
2018-06-01T19:05:09.543Z,29.00
2018-06-01T19:07:36.992Z,29.57
2018-06-01T19:10:04.464Z,28.53
2018-06-01T19:12:31.899Z,29.27
2018-06-01T19:14:59.331Z,28.97
2018-06-01T19:17:26.826Z,30.30
2018-06-01T19:19:54.297Z,31.95
2018-06-01T19:22:21.748Z,28.73
2018-06-01T19:24:49.188Z,30.43
2018-06-01T19:27:16.673Z,29.60
2018-06-01T19:29:44.110Z,30.40
2018-06-01T19:32:11.579Z,28.87
2018-06-01T19:34:39.015Z,30.03
2018-06-01T19:37:06.490Z,31.13
2018-06-01T19:39:33.918Z,29.57
2018-06-01T19:42:01.399Z,30.63
2018-06-01T19:44:28.968Z,29.17
2018-06-01T19:46:56.426Z,29.93
2018-06-01T19:49:23.875Z,29.40
2018-06-01T19:51:51.317Z,30.00
2018-06-01T19:54:18.751Z,30.60
2018-06-01T19:56:46.194Z,29.13
2018-06-01T19:59:14.423Z,27.27
2018-06-01T20:01:41.855Z,28.10
2018-06-01T20:04:09.307Z,30.85
2018-06-01T20:06:36.796Z,28.00
2018-06-01T20:09:04.355Z,30.37
2018-06-01T20:11:31.791Z,26.37
2018-06-01T20:13:59.256Z,26.40
2018-06-01T20:16:26.691Z,26.13
2018-06-01T20:18:54.124Z,25.60
2018-06-01T20:21:22.390Z,26.77
2018-06-01T20:23:49.826Z,23.93
2018-06-01T20:26:17.261Z,25.80
2018-06-01T20:28:44.699Z,26.37
2018-06-01T20:31:12.194Z,28.17
2018-06-01T20:33:40.643Z,28.70
2018-06-01T20:36:08.084Z,27.93
2018-06-01T20:38:36.291Z,30.10
2018-06-01T20:41:03.748Z,31.03
2018-06-01T20:43:31.208Z,31.33
2018-06-01T20:45:58.656Z,29.07
2018-06-01T20:48:26.083Z,30.43
2018-06-01T20:50:54.280Z,28.77
2018-06-01T20:53:21.763Z,30.60
2018-06-01T20:55:49.207Z,31.03
2018-06-01T20:58:16.673Z,31.43
2018-06-01T21:00:44.140Z,33.13
2018-06-01T21:03:11.599Z,32.80
2018-06-01T21:05:39.049Z,34.10
2018-06-01T21:08:06.503Z,31.63
2018-06-01T21:10:33.999Z,31.60
2018-06-01T21:13:01.519Z,31.30
2018-06-01T21:15:28.926Z,32.00
2018-06-01T21:17:57.154Z,30.10
2018-06-01T21:20:24.584Z,29.47
2018-06-01T21:22:52.262Z,30.37
2018-06-01T21:25:19.690Z,28.50
2018-06-01T21:27:47.879Z,29.27
2018-06-01T21:30:15.312Z,28.07
2018-06-01T21:32:43.558Z,28.27
2018-06-01T21:35:11.010Z,27.77
2018-06-01T21:37:38.464Z,27.57
2018-06-01T21:40:05.888Z,26.13
2018-06-01T21:42:33.376Z,29.92
2018-06-01T21:45:00.818Z,27.93
2018-06-01T21:47:28.280Z,31.50
2018-06-01T21:49:55.744Z,28.87
2018-06-01T21:52:23.184Z,27.70
2018-06-01T21:54:50.665Z,27.93
2018-06-01T21:57:18.118Z,29.13
2018-06-01T21:59:45.671Z,27.97
2018-06-01T22:02:13.218Z,27.40
2018-06-01T22:04:40.691Z,26.47
2018-06-01T22:07:08.132Z,28.83
2018-06-01T22:09:35.562Z,30.73
2018-06-01T22:12:03.795Z,29.63
2018-06-01T22:14:31.348Z,31.07
2018-06-01T22:16:58.811Z,31.13
2018-06-01T22:19:26.259Z,30.53
2018-06-01T22:21:53.815Z,30.93
2018-06-01T22:24:21.259Z,31.57
2018-06-01T22:26:48.699Z,32.90
2018-06-01T22:29:16.139Z,33.20
2018-06-01T22:31:44.360Z,34.27
2018-06-01T22:34:11.789Z,35.17
2018-06-01T22:36:39.255Z,40.72
2018-06-01T22:39:06.848Z,37.60
2018-06-01T22:41:34.380Z,43.20
2018-06-01T22:44:01.791Z,40.67
2018-06-01T22:46:30.010Z,41.87
2018-06-01T22:48:57.431Z,41.43
2018-06-01T22:51:25.744Z,41.33
2018-06-01T22:53:53.201Z,42.20
2018-06-01T22:56:20.659Z,43.80
2018-06-01T22:58:48.085Z,43.17
2018-06-01T23:01:16.278Z,41.70
2018-06-01T23:03:43.711Z,42.53
2018-06-01T23:06:12.065Z,42.13
2018-06-01T23:08:39.499Z,42.37
2018-06-01T23:11:07.045Z,43.73
2018-06-01T23:13:34.501Z,42.73
2018-06-01T23:16:01.993Z,44.10
2018-06-01T23:18:29.438Z,43.00
2018-06-01T23:20:56.903Z,48.43
2018-06-01T23:23:24.452Z,48.90
2018-06-01T23:25:51.941Z,48.17
2018-06-01T23:28:19.389Z,49.00
2018-06-01T23:30:46.835Z,50.63
2018-06-01T23:33:14.287Z,55.20
2018-06-01T23:35:41.734Z,60.15
2018-06-01T23:38:09.167Z,55.73
2018-06-01T23:40:36.598Z,58.63
2018-06-01T23:43:06.482Z,59.00
2018-06-01T23:45:33.984Z,62.70
2018-06-01T23:48:01.447Z,66.57
2018-06-01T23:50:29.639Z,65.47
2018-06-01T23:52:57.135Z,65.30
2018-06-01T23:55:24.587Z,60.87
2018-06-01T23:57:52.035Z,66.30
